sensor_id;sensor_type;location;lat;lon;timestamp;P1;durP1;ratioP1;P2;durP2;ratioP2
65373;SDS011;52070;53.760;9.678;2024-02-23T00:00:16;1.17;;;0.40;;
65373;SDS011;52070;53.760;9.678;2024-02-23T00:02:44;2.33;;;0.60;;
65373;SDS011;52070;53.760;9.678;2024-02-23T00:05:11;2.05;;;0.30;;
65373;SDS011;52070;53.760;9.678;2024-02-23T00:07:38;4.38;;;0.45;;
65373;SDS011;52070;53.760;9.678;2024-02-23T00:10:09;0.30;;;0.30;;
65373;SDS011;52070;53.760;9.678;2024-02-23T00:12:36;0.98;;;0.60;;
65373;SDS011;52070;53.760;9.678;2024-02-23T00:15:03;0.30;;;0.30;;
65373;SDS011;52070;53.760;9.678;2024-02-23T00:17:30;1.55;;;0.40;;
65373;SDS011;52070;53.760;9.678;2024-02-23T00:19:57;1.00;;;0.57;;
65373;SDS011;52070;53.760;9.678;2024-02-23T00:22:24;37.22;;;0.98;;
65373;SDS011;52070;53.760;9.678;2024-02-23T00:24:51;1.67;;;0.57;;
65373;SDS011;52070;53.760;9.678;2024-02-23T00:27:19;1.63;;;0.60;;
65373;SDS011;52070;53.760;9.678;2024-02-23T00:29:46;1.08;;;0.50;;
65373;SDS011;52070;53.760;9.678;2024-02-23T00:32:13;1.98;;;0.50;;
65373;SDS011;52070;53.760;9.678;2024-02-23T00:34:40;1.98;;;0.45;;
65373;SDS011;52070;53.760;9.678;2024-02-23T00:37:07;1.38;;;0.50;;
65373;SDS011;52070;53.760;9.678;2024-02-23T00:39:34;0.68;;;0.40;;
65373;SDS011;52070;53.760;9.678;2024-02-23T00:42:02;1.90;;;0.25;;
65373;SDS011;52070;53.760;9.678;2024-02-23T00:44:30;2.20;;;0.20;;
65373;SDS011;52070;53.760;9.678;2024-02-23T00:46:57;0.75;;;0.30;;
65373;SDS011;52070;53.760;9.678;2024-02-23T00:49:26;0.50;;;0.20;;
65373;SDS011;52070;53.760;9.678;2024-02-23T00:51:53;2.47;;;0.20;;
65373;SDS011;52070;53.760;9.678;2024-02-23T00:54:21;0.15;;;0.15;;
65373;SDS011;52070;53.760;9.678;2024-02-23T00:56:48;0.77;;;0.10;;
65373;SDS011;52070;53.760;9.678;2024-02-23T00:59:15;0.00;;;0.00;;
65373;SDS011;52070;53.760;9.678;2024-02-23T01:01:43;0.10;;;0.10;;
65373;SDS011;52070;53.760;9.678;2024-02-23T01:04:10;0.10;;;0.10;;
65373;SDS011;52070;53.760;9.678;2024-02-23T01:06:37;0.57;;;0.10;;
65373;SDS011;52070;53.760;9.678;2024-02-23T01:09:04;3.20;;;0.20;;
65373;SDS011;52070;53.760;9.678;2024-02-23T01:11:31;2.17;;;0.20;;
65373;SDS011;52070;53.760;9.678;2024-02-23T01:13:58;1.63;;;0.20;;
65373;SDS011;52070;53.760;9.678;2024-02-23T01:16:25;2.53;;;0.35;;
65373;SDS011;52070;53.760;9.678;2024-02-23T01:18:53;0.10;;;0.10;;
65373;SDS011;52070;53.760;9.678;2024-02-23T01:21:20;0.10;;;0.10;;
65373;SDS011;52070;53.760;9.678;2024-02-23T01:23:47;1.23;;;0.20;;
65373;SDS011;52070;53.760;9.678;2024-02-23T01:26:14;0.00;;;0.00;;
65373;SDS011;52070;53.760;9.678;2024-02-23T01:28:41;1.55;;;0.10;;
65373;SDS011;52070;53.760;9.678;2024-02-23T01:31:08;0.00;;;0.00;;
65373;SDS011;52070;53.760;9.678;2024-02-23T01:33:37;0.13;;;0.00;;
65373;SDS011;52070;53.760;9.678;2024-02-23T01:36:05;1.95;;;0.20;;
65373;SDS011;52070;53.760;9.678;2024-02-23T01:38:33;3.63;;;0.10;;
65373;SDS011;52070;53.760;9.678;2024-02-23T01:41:00;0.22;;;0.10;;
65373;SDS011;52070;53.760;9.678;2024-02-23T01:43:28;0.00;;;0.00;;
65373;SDS011;52070;53.760;9.678;2024-02-23T01:45:55;0.10;;;0.10;;
65373;SDS011;52070;53.760;9.678;2024-02-23T01:48:21;0.20;;;0.00;;
65373;SDS011;52070;53.760;9.678;2024-02-23T01:50:48;11.55;;;0.50;;
65373;SDS011;52070;53.760;9.678;2024-02-23T01:53:17;0.13;;;0.00;;
65373;SDS011;52070;53.760;9.678;2024-02-23T01:55:45;0.10;;;0.10;;
65373;SDS011;52070;53.760;9.678;2024-02-23T01:58:12;0.00;;;0.00;;
65373;SDS011;52070;53.760;9.678;2024-02-23T02:00:39;0.00;;;0.00;;
65373;SDS011;52070;53.760;9.678;2024-02-23T02:03:06;0.00;;;0.00;;
65373;SDS011;52070;53.760;9.678;2024-02-23T02:05:35;0.13;;;0.13;;
65373;SDS011;52070;53.760;9.678;2024-02-23T02:08:02;0.40;;;0.10;;
65373;SDS011;52070;53.760;9.678;2024-02-23T02:10:31;0.65;;;0.15;;
65373;SDS011;52070;53.760;9.678;2024-02-23T02:13:01;0.10;;;0.10;;
65373;SDS011;52070;53.760;9.678;2024-02-23T02:17:55;0.20;;;0.20;;
65373;SDS011;52070;53.760;9.678;2024-02-23T02:20:23;2.17;;;0.30;;
65373;SDS011;52070;53.760;9.678;2024-02-23T02:22:51;0.00;;;0.00;;
65373;SDS011;52070;53.760;9.678;2024-02-23T02:25:18;0.00;;;0.00;;
65373;SDS011;52070;53.760;9.678;2024-02-23T02:27:47;0.17;;;0.08;;
65373;SDS011;52070;53.760;9.678;2024-02-23T02:30:14;0.25;;;0.20;;
65373;SDS011;52070;53.760;9.678;2024-02-23T02:32:41;0.08;;;0.00;;
65373;SDS011;52070;53.760;9.678;2024-02-23T02:35:09;1.10;;;0.20;;
65373;SDS011;52070;53.760;9.678;2024-02-23T02:37:37;0.40;;;0.10;;
65373;SDS011;52070;53.760;9.678;2024-02-23T02:40:04;0.55;;;0.10;;
65373;SDS011;52070;53.760;9.678;2024-02-23T02:42:32;1.08;;;0.22;;
65373;SDS011;52070;53.760;9.678;2024-02-23T02:45:00;2.05;;;0.30;;
65373;SDS011;52070;53.760;9.678;2024-02-23T02:47:28;0.82;;;0.20;;
65373;SDS011;52070;53.760;9.678;2024-02-23T02:49:55;1.15;;;0.10;;
65373;SDS011;52070;53.760;9.678;2024-02-23T02:52:22;1.35;;;0.20;;
65373;SDS011;52070;53.760;9.678;2024-02-23T02:54:49;1.58;;;0.20;;
65373;SDS011;52070;53.760;9.678;2024-02-23T02:57:16;0.00;;;0.00;;
65373;SDS011;52070;53.760;9.678;2024-02-23T02:59:43;0.75;;;0.30;;
65373;SDS011;52070;53.760;9.678;2024-02-23T03:02:12;0.68;;;0.30;;
65373;SDS011;52070;53.760;9.678;2024-02-23T03:04:46;0.90;;;0.25;;
65373;SDS011;52070;53.760;9.678;2024-02-23T03:07:13;0.98;;;0.20;;
65373;SDS011;52070;53.760;9.678;2024-02-23T03:09:40;0.30;;;0.20;;
65373;SDS011;52070;53.760;9.678;2024-02-23T03:12:08;5.78;;;0.20;;
65373;SDS011;52070;53.760;9.678;2024-02-23T03:14:34;1.00;;;0.20;;
65373;SDS011;52070;53.760;9.678;2024-02-23T03:19:34;0.77;;;0.22;;
65373;SDS011;52070;53.760;9.678;2024-02-23T03:22:01;1.88;;;0.50;;
65373;SDS011;52070;53.760;9.678;2024-02-23T03:24:28;2.70;;;0.30;;
65373;SDS011;52070;53.760;9.678;2024-02-23T03:26:55;2.03;;;0.30;;
65373;SDS011;52070;53.760;9.678;2024-02-23T03:29:22;0.98;;;0.20;;
65373;SDS011;52070;53.760;9.678;2024-02-23T03:31:49;0.85;;;0.30;;
65373;SDS011;52070;53.760;9.678;2024-02-23T03:34:17;0.60;;;0.20;;
65373;SDS011;52070;53.760;9.678;2024-02-23T03:36:45;2.85;;;0.43;;
65373;SDS011;52070;53.760;9.678;2024-02-23T03:39:12;0.57;;;0.30;;
65373;SDS011;52070;53.760;9.678;2024-02-23T03:41:39;0.98;;;0.50;;
65373;SDS011;52070;53.760;9.678;2024-02-23T03:44:06;0.75;;;0.40;;
65373;SDS011;52070;53.760;9.678;2024-02-23T03:46:33;3.42;;;0.50;;
65373;SDS011;52070;53.760;9.678;2024-02-23T03:49:01;2.80;;;0.60;;
65373;SDS011;52070;53.760;9.678;2024-02-23T03:51:28;0.82;;;0.50;;
65373;SDS011;52070;53.760;9.678;2024-02-23T03:53:56;1.35;;;0.32;;
65373;SDS011;52070;53.760;9.678;2024-02-23T03:56:23;1.92;;;0.40;;
65373;SDS011;52070;53.760;9.678;2024-02-23T03:58:50;6.20;;;1.15;;
65373;SDS011;52070;53.760;9.678;2024-02-23T04:01:17;2.10;;;0.30;;
65373;SDS011;52070;53.760;9.678;2024-02-23T04:03:44;3.67;;;0.60;;
65373;SDS011;52070;53.760;9.678;2024-02-23T04:06:11;3.50;;;0.80;;
65373;SDS011;52070;53.760;9.678;2024-02-23T04:08:38;4.93;;;0.50;;
65373;SDS011;52070;53.760;9.678;2024-02-23T04:11:08;0.80;;;0.47;;
65373;SDS011;52070;53.760;9.678;2024-02-23T04:13:39;2.00;;;0.40;;
65373;SDS011;52070;53.760;9.678;2024-02-23T04:16:06;0.20;;;0.20;;
65373;SDS011;52070;53.760;9.678;2024-02-23T04:18:33;2.03;;;0.43;;
65373;SDS011;52070;53.760;9.678;2024-02-23T04:21:00;3.05;;;0.60;;
65373;SDS011;52070;53.760;9.678;2024-02-23T04:23:27;6.57;;;0.70;;
65373;SDS011;52070;53.760;9.678;2024-02-23T04:25:54;3.38;;;0.47;;
65373;SDS011;52070;53.760;9.678;2024-02-23T04:28:22;1.20;;;0.50;;
65373;SDS011;52070;53.760;9.678;2024-02-23T04:30:51;5.40;;;1.15;;
65373;SDS011;52070;53.760;9.678;2024-02-23T04:33:18;10.52;;;0.63;;
65373;SDS011;52070;53.760;9.678;2024-02-23T04:35:44;4.47;;;0.80;;
65373;SDS011;52070;53.760;9.678;2024-02-23T04:38:11;1.50;;;0.60;;
65373;SDS011;52070;53.760;9.678;2024-02-23T04:40:38;5.35;;;0.57;;
65373;SDS011;52070;53.760;9.678;2024-02-23T04:43:05;2.35;;;0.85;;
65373;SDS011;52070;53.760;9.678;2024-02-23T04:45:34;2.85;;;0.80;;
65373;SDS011;52070;53.760;9.678;2024-02-23T04:48:01;6.55;;;0.70;;
65373;SDS011;52070;53.760;9.678;2024-02-23T04:50:29;2.28;;;1.13;;
65373;SDS011;52070;53.760;9.678;2024-02-23T04:52:56;4.28;;;0.77;;
65373;SDS011;52070;53.760;9.678;2024-02-23T04:55:23;3.13;;;0.90;;
65373;SDS011;52070;53.760;9.678;2024-02-23T04:57:50;1.75;;;0.75;;
65373;SDS011;52070;53.760;9.678;2024-02-23T05:00:17;6.68;;;1.15;;
65373;SDS011;52070;53.760;9.678;2024-02-23T05:02:46;2.67;;;0.73;;
65373;SDS011;52070;53.760;9.678;2024-02-23T05:05:13;0.75;;;0.45;;
65373;SDS011;52070;53.760;9.678;2024-02-23T05:07:40;3.63;;;0.77;;
65373;SDS011;52070;53.760;9.678;2024-02-23T05:10:08;3.70;;;0.82;;
65373;SDS011;52070;53.760;9.678;2024-02-23T05:12:35;3.70;;;0.80;;
65373;SDS011;52070;53.760;9.678;2024-02-23T05:15:02;2.50;;;0.88;;
65373;SDS011;52070;53.760;9.678;2024-02-23T05:17:30;6.22;;;1.10;;
65373;SDS011;52070;53.760;9.678;2024-02-23T05:19:58;5.28;;;1.40;;
65373;SDS011;52070;53.760;9.678;2024-02-23T05:22:25;4.65;;;1.20;;
65373;SDS011;52070;53.760;9.678;2024-02-23T05:24:52;5.25;;;1.40;;
65373;SDS011;52070;53.760;9.678;2024-02-23T05:27:19;7.63;;;1.25;;
65373;SDS011;52070;53.760;9.678;2024-02-23T05:29:46;2.05;;;1.33;;
65373;SDS011;52070;53.760;9.678;2024-02-23T05:32:13;3.47;;;1.33;;
65373;SDS011;52070;53.760;9.678;2024-02-23T05:34:39;5.35;;;1.20;;
65373;SDS011;52070;53.760;9.678;2024-02-23T05:37:08;5.50;;;1.15;;
65373;SDS011;52070;53.760;9.678;2024-02-23T05:39:35;5.03;;;1.20;;
65373;SDS011;52070;53.760;9.678;2024-02-23T05:42:03;4.45;;;1.38;;
65373;SDS011;52070;53.760;9.678;2024-02-23T05:44:30;4.20;;;1.50;;
65373;SDS011;52070;53.760;9.678;2024-02-23T05:46:57;4.53;;;1.23;;
65373;SDS011;52070;53.760;9.678;2024-02-23T05:49:24;1.58;;;1.13;;
65373;SDS011;52070;53.760;9.678;2024-02-23T05:51:51;5.53;;;1.50;;
65373;SDS011;52070;53.760;9.678;2024-02-23T05:54:19;2.72;;;1.48;;
65373;SDS011;52070;53.760;9.678;2024-02-23T05:56:46;3.38;;;0.70;;
65373;SDS011;52070;53.760;9.678;2024-02-23T05:59:13;2.97;;;1.25;;
65373;SDS011;52070;53.760;9.678;2024-02-23T06:01:40;2.30;;;1.00;;
65373;SDS011;52070;53.760;9.678;2024-02-23T06:04:07;1.20;;;0.90;;
65373;SDS011;52070;53.760;9.678;2024-02-23T06:06:34;5.55;;;1.20;;
65373;SDS011;52070;53.760;9.678;2024-02-23T06:09:01;2.42;;;0.75;;
65373;SDS011;52070;53.760;9.678;2024-02-23T06:11:30;3.40;;;1.08;;
65373;SDS011;52070;53.760;9.678;2024-02-23T06:13:57;1.05;;;0.70;;
65373;SDS011;52070;53.760;9.678;2024-02-23T06:16:24;6.05;;;1.23;;
65373;SDS011;52070;53.760;9.678;2024-02-23T06:18:51;0.88;;;0.77;;
65373;SDS011;52070;53.760;9.678;2024-02-23T06:21:18;1.38;;;0.95;;
65373;SDS011;52070;53.760;9.678;2024-02-23T06:23:45;6.90;;;0.90;;
65373;SDS011;52070;53.760;9.678;2024-02-23T06:26:12;2.67;;;0.70;;
65373;SDS011;52070;53.760;9.678;2024-02-23T06:28:40;3.92;;;0.73;;
65373;SDS011;52070;53.760;9.678;2024-02-23T06:31:08;3.00;;;0.90;;
65373;SDS011;52070;53.760;9.678;2024-02-23T06:33:35;3.83;;;0.90;;
65373;SDS011;52070;53.760;9.678;2024-02-23T06:36:02;2.42;;;0.90;;
65373;SDS011;52070;53.760;9.678;2024-02-23T06:38:30;3.53;;;1.15;;
65373;SDS011;52070;53.760;9.678;2024-02-23T06:40:57;2.78;;;0.90;;
65373;SDS011;52070;53.760;9.678;2024-02-23T06:43:24;6.60;;;1.40;;
65373;SDS011;52070;53.760;9.678;2024-02-23T06:45:53;1.35;;;0.98;;
65373;SDS011;52070;53.760;9.678;2024-02-23T06:48:20;2.78;;;1.20;;
65373;SDS011;52070;53.760;9.678;2024-02-23T06:50:47;2.65;;;1.10;;
65373;SDS011;52070;53.760;9.678;2024-02-23T06:53:14;3.08;;;1.15;;
65373;SDS011;52070;53.760;9.678;2024-02-23T06:55:41;4.57;;;1.55;;
65373;SDS011;52070;53.760;9.678;2024-02-23T06:58:08;2.55;;;1.13;;
65373;SDS011;52070;53.760;9.678;2024-02-23T07:00:36;1.15;;;0.98;;
65373;SDS011;52070;53.760;9.678;2024-02-23T07:03:05;3.95;;;1.38;;
65373;SDS011;52070;53.760;9.678;2024-02-23T07:05:32;6.93;;;1.73;;
65373;SDS011;52070;53.760;9.678;2024-02-23T07:08:00;2.85;;;1.35;;
65373;SDS011;52070;53.760;9.678;2024-02-23T07:10:27;3.88;;;1.58;;
65373;SDS011;52070;53.760;9.678;2024-02-23T07:12:55;3.58;;;1.42;;
65373;SDS011;52070;53.760;9.678;2024-02-23T07:15:23;8.80;;;1.70;;
65373;SDS011;52070;53.760;9.678;2024-02-23T07:17:51;4.53;;;1.50;;
65373;SDS011;52070;53.760;9.678;2024-02-23T07:20:19;3.70;;;1.40;;
65373;SDS011;52070;53.760;9.678;2024-02-23T07:22:46;1.98;;;1.30;;
65373;SDS011;52070;53.760;9.678;2024-02-23T07:25:15;8.27;;;1.63;;
65373;SDS011;52070;53.760;9.678;2024-02-23T07:27:42;1.98;;;1.10;;
65373;SDS011;52070;53.760;9.678;2024-02-23T07:30:10;6.38;;;1.92;;
65373;SDS011;52070;53.760;9.678;2024-02-23T07:32:38;4.03;;;1.38;;
65373;SDS011;52070;53.760;9.678;2024-02-23T07:35:05;3.33;;;1.20;;
65373;SDS011;52070;53.760;9.678;2024-02-23T07:37:34;5.65;;;1.50;;
65373;SDS011;52070;53.760;9.678;2024-02-23T07:40:01;5.03;;;1.42;;
65373;SDS011;52070;53.760;9.678;2024-02-23T07:42:29;7.82;;;1.90;;
65373;SDS011;52070;53.760;9.678;2024-02-23T07:44:56;2.30;;;1.30;;
65373;SDS011;52070;53.760;9.678;2024-02-23T07:47:24;2.63;;;1.55;;
65373;SDS011;52070;53.760;9.678;2024-02-23T07:49:52;2.83;;;1.23;;
65373;SDS011;52070;53.760;9.678;2024-02-23T07:52:20;2.88;;;1.35;;
65373;SDS011;52070;53.760;9.678;2024-02-23T07:54:49;2.45;;;1.25;;
65373;SDS011;52070;53.760;9.678;2024-02-23T07:57:17;2.30;;;1.38;;
65373;SDS011;52070;53.760;9.678;2024-02-23T07:59:45;5.13;;;1.35;;
65373;SDS011;52070;53.760;9.678;2024-02-23T08:02:12;3.60;;;1.45;;
65373;SDS011;52070;53.760;9.678;2024-02-23T08:04:39;3.63;;;1.35;;
65373;SDS011;52070;53.760;9.678;2024-02-23T08:07:07;5.63;;;1.33;;
65373;SDS011;52070;53.760;9.678;2024-02-23T08:09:34;2.95;;;1.27;;
65373;SDS011;52070;53.760;9.678;2024-02-23T08:12:03;4.75;;;1.40;;
65373;SDS011;52070;53.760;9.678;2024-02-23T08:14:30;2.60;;;1.73;;
65373;SDS011;52070;53.760;9.678;2024-02-23T08:16:58;3.42;;;1.63;;
65373;SDS011;52070;53.760;9.678;2024-02-23T08:19:25;3.83;;;1.90;;
65373;SDS011;52070;53.760;9.678;2024-02-23T08:21:52;5.57;;;1.50;;
65373;SDS011;52070;53.760;9.678;2024-02-23T08:24:19;7.20;;;1.73;;
65373;SDS011;52070;53.760;9.678;2024-02-23T08:26:46;2.95;;;1.30;;
65373;SDS011;52070;53.760;9.678;2024-02-23T08:29:15;2.83;;;1.27;;
65373;SDS011;52070;53.760;9.678;2024-02-23T08:31:42;7.80;;;1.77;;
65373;SDS011;52070;53.760;9.678;2024-02-23T08:34:08;2.35;;;1.30;;
65373;SDS011;52070;53.760;9.678;2024-02-23T08:36:35;5.65;;;1.30;;
65373;SDS011;52070;53.760;9.678;2024-02-23T08:39:02;9.63;;;1.80;;
65373;SDS011;52070;53.760;9.678;2024-02-23T08:41:30;9.25;;;1.45;;
65373;SDS011;52070;53.760;9.678;2024-02-23T08:43:57;4.13;;;1.40;;
65373;SDS011;52070;53.760;9.678;2024-02-23T08:46:25;6.35;;;1.80;;
65373;SDS011;52070;53.760;9.678;2024-02-23T08:48:52;7.72;;;1.30;;
65373;SDS011;52070;53.760;9.678;2024-02-23T08:51:19;7.18;;;1.50;;
65373;SDS011;52070;53.760;9.678;2024-02-23T08:53:46;4.65;;;1.20;;
65373;SDS011;52070;53.760;9.678;2024-02-23T08:56:12;2.83;;;1.13;;
65373;SDS011;52070;53.760;9.678;2024-02-23T08:58:41;5.07;;;1.42;;
65373;SDS011;52070;53.760;9.678;2024-02-23T09:01:08;9.85;;;1.48;;
65373;SDS011;52070;53.760;9.678;2024-02-23T09:03:36;4.10;;;1.48;;
65373;SDS011;52070;53.760;9.678;2024-02-23T09:06:04;3.78;;;1.20;;
65373;SDS011;52070;53.760;9.678;2024-02-23T09:08:31;2.95;;;1.10;;
65373;SDS011;52070;53.760;9.678;2024-02-23T09:10:58;8.48;;;1.35;;
65373;SDS011;52070;53.760;9.678;2024-02-23T09:13:24;5.07;;;1.35;;
65373;SDS011;52070;53.760;9.678;2024-02-23T09:15:53;6.22;;;1.73;;
65373;SDS011;52070;53.760;9.678;2024-02-23T09:18:20;5.72;;;1.50;;
65373;SDS011;52070;53.760;9.678;2024-02-23T09:20:48;4.55;;;1.40;;
65373;SDS011;52070;53.760;9.678;2024-02-23T09:23:15;8.27;;;1.70;;
65373;SDS011;52070;53.760;9.678;2024-02-23T09:25:42;3.83;;;1.10;;
65373;SDS011;52070;53.760;9.678;2024-02-23T09:28:09;2.60;;;0.90;;
65373;SDS011;52070;53.760;9.678;2024-02-23T09:30:36;4.25;;;1.50;;
65373;SDS011;52070;53.760;9.678;2024-02-23T09:33:04;4.60;;;1.00;;
65373;SDS011;52070;53.760;9.678;2024-02-23T09:35:31;5.72;;;1.17;;
65373;SDS011;52070;53.760;9.678;2024-02-23T09:38:00;4.95;;;1.10;;
65373;SDS011;52070;53.760;9.678;2024-02-23T09:40:28;3.90;;;1.35;;
65373;SDS011;52070;53.760;9.678;2024-02-23T09:42:56;2.85;;;1.08;;
65373;SDS011;52070;53.760;9.678;2024-02-23T09:45:24;5.75;;;1.45;;
65373;SDS011;52070;53.760;9.678;2024-02-23T09:47:52;4.68;;;1.45;;
65373;SDS011;52070;53.760;9.678;2024-02-23T09:50:20;7.53;;;1.63;;
65373;SDS011;52070;53.760;9.678;2024-02-23T09:52:49;9.32;;;1.45;;
65373;SDS011;52070;53.760;9.678;2024-02-23T09:55:18;3.72;;;1.05;;
65373;SDS011;52070;53.760;9.678;2024-02-23T09:57:47;4.38;;;1.52;;
65373;SDS011;52070;53.760;9.678;2024-02-23T10:00:15;4.72;;;1.30;;
65373;SDS011;52070;53.760;9.678;2024-02-23T10:02:43;3.50;;;1.30;;
65373;SDS011;52070;53.760;9.678;2024-02-23T10:05:10;11.05;;;1.73;;
65373;SDS011;52070;53.760;9.678;2024-02-23T10:07:38;4.07;;;1.30;;
65373;SDS011;52070;53.760;9.678;2024-02-23T10:10:06;8.40;;;1.33;;
65373;SDS011;52070;53.760;9.678;2024-02-23T10:12:35;7.20;;;1.58;;
65373;SDS011;52070;53.760;9.678;2024-02-23T10:15:02;7.05;;;1.45;;
65373;SDS011;52070;53.760;9.678;2024-02-23T10:17:29;7.20;;;1.27;;
65373;SDS011;52070;53.760;9.678;2024-02-23T10:19:56;6.53;;;1.65;;
65373;SDS011;52070;53.760;9.678;2024-02-23T10:22:23;4.95;;;1.35;;
65373;SDS011;52070;53.760;9.678;2024-02-23T10:24:51;6.30;;;1.88;;
65373;SDS011;52070;53.760;9.678;2024-02-23T10:27:18;8.60;;;1.63;;
65373;SDS011;52070;53.760;9.678;2024-02-23T10:29:50;10.50;;;1.50;;
65373;SDS011;52070;53.760;9.678;2024-02-23T10:32:17;2.15;;;0.88;;
65373;SDS011;52070;53.760;9.678;2024-02-23T10:34:47;5.95;;;1.48;;
65373;SDS011;52070;53.760;9.678;2024-02-23T10:37:15;1.98;;;0.82;;
65373;SDS011;52070;53.760;9.678;2024-02-23T10:39:42;3.22;;;1.00;;
65373;SDS011;52070;53.760;9.678;2024-02-23T10:42:09;5.95;;;0.75;;
65373;SDS011;52070;53.760;9.678;2024-02-23T10:44:37;5.82;;;1.10;;
65373;SDS011;52070;53.760;9.678;2024-02-23T10:47:07;3.80;;;1.15;;
65373;SDS011;52070;53.760;9.678;2024-02-23T10:49:34;8.90;;;0.98;;
65373;SDS011;52070;53.760;9.678;2024-02-23T10:52:01;5.53;;;0.85;;
65373;SDS011;52070;53.760;9.678;2024-02-23T10:54:29;1.50;;;0.55;;
65373;SDS011;52070;53.760;9.678;2024-02-23T10:56:58;8.07;;;1.48;;
65373;SDS011;52070;53.760;9.678;2024-02-23T10:59:25;5.65;;;1.10;;
65373;SDS011;52070;53.760;9.678;2024-02-23T11:01:54;5.68;;;1.30;;
65373;SDS011;52070;53.760;9.678;2024-02-23T11:04:24;5.75;;;0.90;;
65373;SDS011;52070;53.760;9.678;2024-02-23T11:06:52;3.88;;;1.05;;
65373;SDS011;52070;53.760;9.678;2024-02-23T11:09:21;4.97;;;0.90;;
65373;SDS011;52070;53.760;9.678;2024-02-23T11:11:53;3.60;;;0.95;;
65373;SDS011;52070;53.760;9.678;2024-02-23T11:14:29;5.40;;;0.80;;
65373;SDS011;52070;53.760;9.678;2024-02-23T11:16:57;1.55;;;0.73;;
65373;SDS011;52070;53.760;9.678;2024-02-23T11:19:33;2.90;;;0.95;;
65373;SDS011;52070;53.760;9.678;2024-02-23T11:22:01;3.50;;;0.85;;
65373;SDS011;52070;53.760;9.678;2024-02-23T11:24:29;7.55;;;1.30;;
65373;SDS011;52070;53.760;9.678;2024-02-23T11:26:56;2.67;;;1.05;;
65373;SDS011;52070;53.760;9.678;2024-02-23T11:29:25;4.40;;;1.02;;
65373;SDS011;52070;53.760;9.678;2024-02-23T11:31:53;5.82;;;1.38;;
65373;SDS011;52070;53.760;9.678;2024-02-23T11:34:22;4.93;;;0.88;;
65373;SDS011;52070;53.760;9.678;2024-02-23T11:36:52;4.35;;;0.88;;
65373;SDS011;52070;53.760;9.678;2024-02-23T11:39:19;5.72;;;1.02;;
65373;SDS011;52070;53.760;9.678;2024-02-23T11:41:47;9.88;;;1.33;;
65373;SDS011;52070;53.760;9.678;2024-02-23T11:44:15;4.45;;;0.98;;
65373;SDS011;52070;53.760;9.678;2024-02-23T11:46:43;2.22;;;0.73;;
65373;SDS011;52070;53.760;9.678;2024-02-23T11:49:10;5.95;;;1.30;;
65373;SDS011;52070;53.760;9.678;2024-02-23T11:51:37;2.90;;;0.77;;
65373;SDS011;52070;53.760;9.678;2024-02-23T11:54:05;4.00;;;0.90;;
65373;SDS011;52070;53.760;9.678;2024-02-23T11:56:32;6.20;;;0.90;;
65373;SDS011;52070;53.760;9.678;2024-02-23T11:58:59;5.63;;;0.93;;
65373;SDS011;52070;53.760;9.678;2024-02-23T12:01:28;1.30;;;0.75;;
65373;SDS011;52070;53.760;9.678;2024-02-23T12:03:56;7.53;;;1.10;;
65373;SDS011;52070;53.760;9.678;2024-02-23T12:06:23;6.40;;;0.70;;
65373;SDS011;52070;53.760;9.678;2024-02-23T12:08:50;4.85;;;0.80;;
65373;SDS011;52070;53.760;9.678;2024-02-23T12:11:18;1.67;;;0.90;;
65373;SDS011;52070;53.760;9.678;2024-02-23T12:13:45;2.40;;;0.85;;
65373;SDS011;52070;53.760;9.678;2024-02-23T12:16:13;2.30;;;1.05;;
65373;SDS011;52070;53.760;9.678;2024-02-23T12:18:41;2.10;;;0.70;;
65373;SDS011;52070;53.760;9.678;2024-02-23T12:21:08;5.13;;;0.98;;
65373;SDS011;52070;53.760;9.678;2024-02-23T12:23:41;2.88;;;0.88;;
65373;SDS011;52070;53.760;9.678;2024-02-23T12:26:09;7.00;;;0.95;;
65373;SDS011;52070;53.760;9.678;2024-02-23T12:28:40;4.15;;;1.00;;
65373;SDS011;52070;53.760;9.678;2024-02-23T12:31:07;5.63;;;1.45;;
65373;SDS011;52070;53.760;9.678;2024-02-23T12:33:35;3.88;;;0.70;;
65373;SDS011;52070;53.760;9.678;2024-02-23T12:36:05;11.68;;;0.95;;
65373;SDS011;52070;53.760;9.678;2024-02-23T12:38:33;4.53;;;0.93;;
65373;SDS011;52070;53.760;9.678;2024-02-23T12:41:00;2.13;;;0.80;;
65373;SDS011;52070;53.760;9.678;2024-02-23T12:43:30;5.10;;;0.93;;
65373;SDS011;52070;53.760;9.678;2024-02-23T12:45:58;4.07;;;0.80;;
65373;SDS011;52070;53.760;9.678;2024-02-23T12:48:26;3.13;;;0.70;;
65373;SDS011;52070;53.760;9.678;2024-02-23T12:50:53;2.38;;;0.63;;
65373;SDS011;52070;53.760;9.678;2024-02-23T12:53:30;7.70;;;1.02;;
65373;SDS011;52070;53.760;9.678;2024-02-23T12:55:59;2.65;;;0.80;;
65373;SDS011;52070;53.760;9.678;2024-02-23T12:58:26;5.03;;;1.00;;
65373;SDS011;52070;53.760;9.678;2024-02-23T13:00:53;4.25;;;1.00;;
65373;SDS011;52070;53.760;9.678;2024-02-23T13:03:21;4.85;;;1.08;;
65373;SDS011;52070;53.760;9.678;2024-02-23T13:05:49;7.05;;;1.20;;
65373;SDS011;52070;53.760;9.678;2024-02-23T13:08:16;2.35;;;0.75;;
65373;SDS011;52070;53.760;9.678;2024-02-23T13:10:43;1.63;;;0.82;;
65373;SDS011;52070;53.760;9.678;2024-02-23T13:13:10;4.05;;;0.75;;
65373;SDS011;52070;53.760;9.678;2024-02-23T13:15:38;4.80;;;0.90;;
65373;SDS011;52070;53.760;9.678;2024-02-23T13:18:05;3.63;;;0.70;;
65373;SDS011;52070;53.760;9.678;2024-02-23T13:20:33;2.85;;;0.70;;
65373;SDS011;52070;53.760;9.678;2024-02-23T13:23:01;2.42;;;0.80;;
65373;SDS011;52070;53.760;9.678;2024-02-23T13:25:28;3.08;;;0.75;;
65373;SDS011;52070;53.760;9.678;2024-02-23T13:27:55;2.08;;;0.63;;
65373;SDS011;52070;53.760;9.678;2024-02-23T13:30:22;5.15;;;0.90;;
65373;SDS011;52070;53.760;9.678;2024-02-23T13:32:48;6.35;;;0.90;;
65373;SDS011;52070;53.760;9.678;2024-02-23T13:35:16;2.22;;;0.80;;
65373;SDS011;52070;53.760;9.678;2024-02-23T13:37:44;1.52;;;0.68;;
65373;SDS011;52070;53.760;9.678;2024-02-23T13:40:11;1.85;;;0.80;;
65373;SDS011;52070;53.760;9.678;2024-02-23T13:42:38;2.33;;;1.00;;
65373;SDS011;52070;53.760;9.678;2024-02-23T13:45:06;0.88;;;0.75;;
65373;SDS011;52070;53.760;9.678;2024-02-23T13:47:34;1.27;;;0.70;;
65373;SDS011;52070;53.760;9.678;2024-02-23T13:50:01;4.90;;;0.75;;
65373;SDS011;52070;53.760;9.678;2024-02-23T13:52:29;1.42;;;0.55;;
65373;SDS011;52070;53.760;9.678;2024-02-23T13:54:57;1.52;;;0.57;;
65373;SDS011;52070;53.760;9.678;2024-02-23T13:57:24;2.58;;;1.02;;
65373;SDS011;52070;53.760;9.678;2024-02-23T13:59:51;1.73;;;0.80;;
65373;SDS011;52070;53.760;9.678;2024-02-23T14:02:24;2.38;;;0.90;;
65373;SDS011;52070;53.760;9.678;2024-02-23T14:04:51;3.33;;;0.80;;
65373;SDS011;52070;53.760;9.678;2024-02-23T14:07:19;3.22;;;0.73;;
65373;SDS011;52070;53.760;9.678;2024-02-23T14:09:46;0.90;;;0.68;;
65373;SDS011;52070;53.760;9.678;2024-02-23T14:12:15;1.52;;;0.55;;
65373;SDS011;52070;53.760;9.678;2024-02-23T14:14:43;1.05;;;0.55;;
65373;SDS011;52070;53.760;9.678;2024-02-23T14:17:10;1.58;;;0.60;;
65373;SDS011;52070;53.760;9.678;2024-02-23T14:19:37;1.55;;;0.57;;
65373;SDS011;52070;53.760;9.678;2024-02-23T14:22:05;2.28;;;0.80;;
65373;SDS011;52070;53.760;9.678;2024-02-23T14:24:32;4.57;;;0.93;;
65373;SDS011;52070;53.760;9.678;2024-02-23T14:26:59;0.98;;;0.55;;
65373;SDS011;52070;53.760;9.678;2024-02-23T14:29:27;1.88;;;0.70;;
65373;SDS011;52070;53.760;9.678;2024-02-23T14:31:54;4.97;;;0.98;;
65373;SDS011;52070;53.760;9.678;2024-02-23T14:34:21;4.05;;;0.90;;
65373;SDS011;52070;53.760;9.678;2024-02-23T14:36:49;4.05;;;1.10;;
65373;SDS011;52070;53.760;9.678;2024-02-23T14:39:16;0.85;;;0.40;;
65373;SDS011;52070;53.760;9.678;2024-02-23T14:41:43;3.33;;;1.00;;
65373;SDS011;52070;53.760;9.678;2024-02-23T14:44:10;1.92;;;0.70;;
65373;SDS011;52070;53.760;9.678;2024-02-23T14:46:38;3.65;;;0.98;;
65373;SDS011;52070;53.760;9.678;2024-02-23T14:49:06;8.77;;;0.82;;
65373;SDS011;52070;53.760;9.678;2024-02-23T14:51:33;3.05;;;0.70;;
65373;SDS011;52070;53.760;9.678;2024-02-23T14:54:01;3.13;;;0.77;;